sensor_id;sensor_type;location;lat;lon;timestamp;temperature;humidity
77056;SHT30;67471;44.918;8.614;2023-04-24T00:02:23;16.24;69.95
77056;SHT30;67471;44.918;8.614;2023-04-24T00:05:27;16.15;69.85
77056;SHT30;67471;44.918;8.614;2023-04-24T00:08:31;16.10;69.92
77056;SHT30;67471;44.918;8.614;2023-04-24T00:11:36;16.07;70.32
77056;SHT30;67471;44.918;8.614;2023-04-24T00:14:40;16.04;70.04
77056;SHT30;67471;44.918;8.614;2023-04-24T00:17:43;15.90;70.91
77056;SHT30;67471;44.918;8.614;2023-04-24T00:20:47;15.94;70.71
77056;SHT30;67471;44.918;8.614;2023-04-24T00:23:51;16.07;70.40
77056;SHT30;67471;44.918;8.614;2023-04-24T00:26:55;16.08;70.44
77056;SHT30;67471;44.918;8.614;2023-04-24T00:29:59;16.12;70.16
77056;SHT30;67471;44.918;8.614;2023-04-24T00:33:02;16.05;70.54
77056;SHT30;67471;44.918;8.614;2023-04-24T00:36:06;16.19;69.83
77056;SHT30;67471;44.918;8.614;2023-04-24T00:39:10;16.10;70.09
77056;SHT30;67471;44.918;8.614;2023-04-24T00:42:14;16.25;69.71
77056;SHT30;67471;44.918;8.614;2023-04-24T00:45:18;16.21;69.70
77056;SHT30;67471;44.918;8.614;2023-04-24T00:48:23;16.21;70.03
77056;SHT30;67471;44.918;8.614;2023-04-24T00:51:28;16.25;70.03
77056;SHT30;67471;44.918;8.614;2023-04-24T00:54:31;16.15;70.76
77056;SHT30;67471;44.918;8.614;2023-04-24T00:57:35;16.10;71.14
77056;SHT30;67471;44.918;8.614;2023-04-24T01:00:39;16.11;70.75
77056;SHT30;67471;44.918;8.614;2023-04-24T01:03:44;16.31;70.08
77056;SHT30;67471;44.918;8.614;2023-04-24T01:06:49;16.26;70.21
77056;SHT30;67471;44.918;8.614;2023-04-24T01:09:53;16.29;69.98
77056;SHT30;67471;44.918;8.614;2023-04-24T01:12:58;16.15;70.57
77056;SHT30;67471;44.918;8.614;2023-04-24T01:16:01;16.22;70.77
77056;SHT30;67471;44.918;8.614;2023-04-24T01:19:06;16.08;71.33
77056;SHT30;67471;44.918;8.614;2023-04-24T01:22:12;16.15;71.55
77056;SHT30;67471;44.918;8.614;2023-04-24T01:25:16;16.08;71.73
77056;SHT30;67471;44.918;8.614;2023-04-24T01:28:20;15.98;72.44
77056;SHT30;67471;44.918;8.614;2023-04-24T01:31:25;15.91;72.74
77056;SHT30;67471;44.918;8.614;2023-04-24T01:34:29;15.87;72.83
77056;SHT30;67471;44.918;8.614;2023-04-24T01:37:33;15.81;72.85
77056;SHT30;67471;44.918;8.614;2023-04-24T01:40:37;15.87;72.86
77056;SHT30;67471;44.918;8.614;2023-04-24T01:43:41;15.83;72.99
77056;SHT30;67471;44.918;8.614;2023-04-24T01:46:45;15.74;73.08
77056;SHT30;67471;44.918;8.614;2023-04-24T01:49:50;15.71;72.83
77056;SHT30;67471;44.918;8.614;2023-04-24T01:52:53;15.63;72.48
77056;SHT30;67471;44.918;8.614;2023-04-24T01:55:57;15.54;72.64
77056;SHT30;67471;44.918;8.614;2023-04-24T01:59:03;15.49;73.10
77056;SHT30;67471;44.918;8.614;2023-04-24T02:02:07;15.43;73.10
77056;SHT30;67471;44.918;8.614;2023-04-24T02:05:13;15.22;73.73
77056;SHT30;67471;44.918;8.614;2023-04-24T02:08:17;15.38;73.21
77056;SHT30;67471;44.918;8.614;2023-04-24T02:11:21;15.43;72.94
77056;SHT30;67471;44.918;8.614;2023-04-24T02:14:24;15.40;73.22
77056;SHT30;67471;44.918;8.614;2023-04-24T02:17:28;15.28;73.64
77056;SHT30;67471;44.918;8.614;2023-04-24T02:20:34;15.28;73.69
77056;SHT30;67471;44.918;8.614;2023-04-24T02:23:38;15.28;73.81
77056;SHT30;67471;44.918;8.614;2023-04-24T02:26:42;15.28;73.86
77056;SHT30;67471;44.918;8.614;2023-04-24T02:29:46;15.22;74.17
77056;SHT30;67471;44.918;8.614;2023-04-24T02:32:50;15.11;74.38
77056;SHT30;67471;44.918;8.614;2023-04-24T02:35:55;15.18;74.30
77056;SHT30;67471;44.918;8.614;2023-04-24T02:38:59;15.05;74.63
77056;SHT30;67471;44.918;8.614;2023-04-24T02:42:04;14.82;75.81
77056;SHT30;67471;44.918;8.614;2023-04-24T02:45:09;14.88;75.75
77056;SHT30;67471;44.918;8.614;2023-04-24T02:48:13;15.05;75.58
77056;SHT30;67471;44.918;8.614;2023-04-24T02:51:17;15.08;75.54
77056;SHT30;67471;44.918;8.614;2023-04-24T02:54:20;15.06;75.63
77056;SHT30;67471;44.918;8.614;2023-04-24T02:57:24;14.99;75.67
77056;SHT30;67471;44.918;8.614;2023-04-24T03:00:28;14.92;75.79
77056;SHT30;67471;44.918;8.614;2023-04-24T03:03:32;14.89;75.99
77056;SHT30;67471;44.918;8.614;2023-04-24T03:06:36;14.87;76.17
77056;SHT30;67471;44.918;8.614;2023-04-24T03:09:40;14.88;76.62
77056;SHT30;67471;44.918;8.614;2023-04-24T03:12:44;14.85;76.57
77056;SHT30;67471;44.918;8.614;2023-04-24T03:15:48;14.85;76.40
77056;SHT30;67471;44.918;8.614;2023-04-24T03:18:51;14.81;76.62
77056;SHT30;67471;44.918;8.614;2023-04-24T03:21:57;14.77;76.32
77056;SHT30;67471;44.918;8.614;2023-04-24T03:25:01;14.67;76.60
77056;SHT30;67471;44.918;8.614;2023-04-24T03:28:05;14.45;77.10
77056;SHT30;67471;44.918;8.614;2023-04-24T03:31:21;14.38;77.27
77056;SHT30;67471;44.918;8.614;2023-04-24T03:34:26;14.48;77.33
77056;SHT30;67471;44.918;8.614;2023-04-24T03:37:30;14.42;77.32
77056;SHT30;67471;44.918;8.614;2023-04-24T03:40:48;14.29;76.93
77056;SHT30;67471;44.918;8.614;2023-04-24T03:44:09;14.20;77.42
77056;SHT30;67471;44.918;8.614;2023-04-24T03:47:14;14.21;77.30
77056;SHT30;67471;44.918;8.614;2023-04-24T03:50:18;14.09;77.43
77056;SHT30;67471;44.918;8.614;2023-04-24T03:53:23;13.99;77.54
77056;SHT30;67471;44.918;8.614;2023-04-24T03:56:27;13.86;77.92
77056;SHT30;67471;44.918;8.614;2023-04-24T03:59:31;13.85;77.81
77056;SHT30;67471;44.918;8.614;2023-04-24T04:02:55;13.85;77.83
77056;SHT30;67471;44.918;8.614;2023-04-24T04:05:59;13.83;77.71
77056;SHT30;67471;44.918;8.614;2023-04-24T04:09:03;13.71;78.22
77056;SHT30;67471;44.918;8.614;2023-04-24T04:12:07;13.80;77.89
77056;SHT30;67471;44.918;8.614;2023-04-24T04:15:11;13.72;78.25
77056;SHT30;67471;44.918;8.614;2023-04-24T04:18:15;13.57;78.84
77056;SHT30;67471;44.918;8.614;2023-04-24T04:21:19;13.61;78.84
77056;SHT30;67471;44.918;8.614;2023-04-24T04:24:26;13.49;79.06
77056;SHT30;67471;44.918;8.614;2023-04-24T04:27:30;13.42;78.92
77056;SHT30;67471;44.918;8.614;2023-04-24T04:30:40;13.37;78.99
77056;SHT30;67471;44.918;8.614;2023-04-24T04:33:44;13.38;79.01
77056;SHT30;67471;44.918;8.614;2023-04-24T04:36:49;13.20;79.26
77056;SHT30;67471;44.918;8.614;2023-04-24T04:40:08;13.18;79.17
77056;SHT30;67471;44.918;8.614;2023-04-24T04:43:20;13.18;79.01
77056;SHT30;67471;44.918;8.614;2023-04-24T04:46:28;13.10;79.27
77056;SHT30;67471;44.918;8.614;2023-04-24T04:50:03;12.99;79.51
77056;SHT30;67471;44.918;8.614;2023-04-24T04:53:09;12.96;79.34
77056;SHT30;67471;44.918;8.614;2023-04-24T04:56:15;12.90;79.70
77056;SHT30;67471;44.918;8.614;2023-04-24T04:59:22;12.87;79.79
77056;SHT30;67471;44.918;8.614;2023-04-24T05:02:32;12.91;79.59
77056;SHT30;67471;44.918;8.614;2023-04-24T05:05:36;12.94;79.30
77056;SHT30;67471;44.918;8.614;2023-04-24T05:08:45;12.89;79.16
77056;SHT30;67471;44.918;8.614;2023-04-24T05:11:59;12.89;79.28
77056;SHT30;67471;44.918;8.614;2023-04-24T05:15:05;12.96;79.15
77056;SHT30;67471;44.918;8.614;2023-04-24T05:18:09;12.93;79.22
77056;SHT30;67471;44.918;8.614;2023-04-24T05:21:13;12.83;79.35
77056;SHT30;67471;44.918;8.614;2023-04-24T05:24:20;12.86;79.37
77056;SHT30;67471;44.918;8.614;2023-04-24T05:27:30;12.91;79.04
77056;SHT30;67471;44.918;8.614;2023-04-24T05:30:34;12.93;79.01
77056;SHT30;67471;44.918;8.614;2023-04-24T05:33:38;12.93;78.90
77056;SHT30;67471;44.918;8.614;2023-04-24T05:36:43;13.10;79.05
77056;SHT30;67471;44.918;8.614;2023-04-24T05:39:47;13.20;78.63
77056;SHT30;67471;44.918;8.614;2023-04-24T05:42:51;13.42;77.93
77056;SHT30;67471;44.918;8.614;2023-04-24T05:45:55;13.45;77.54
77056;SHT30;67471;44.918;8.614;2023-04-24T05:48:59;13.69;76.79
77056;SHT30;67471;44.918;8.614;2023-04-24T05:52:03;13.73;76.59
77056;SHT30;67471;44.918;8.614;2023-04-24T05:55:09;13.95;75.95
77056;SHT30;67471;44.918;8.614;2023-04-24T05:58:15;13.99;75.56
77056;SHT30;67471;44.918;8.614;2023-04-24T06:01:19;14.06;75.15
77056;SHT30;67471;44.918;8.614;2023-04-24T06:04:31;14.03;75.22
77056;SHT30;67471;44.918;8.614;2023-04-24T06:07:35;14.74;74.14
77056;SHT30;67471;44.918;8.614;2023-04-24T06:10:42;16.97;66.21
77056;SHT30;67471;44.918;8.614;2023-04-24T06:13:47;18.75;59.68
77056;SHT30;67471;44.918;8.614;2023-04-24T06:17:09;20.62;55.13
77056;SHT30;67471;44.918;8.614;2023-04-24T06:20:17;21.69;52.43
77056;SHT30;67471;44.918;8.614;2023-04-24T06:23:20;22.49;50.54
77056;SHT30;67471;44.918;8.614;2023-04-24T06:26:25;23.01;49.31
77056;SHT30;67471;44.918;8.614;2023-04-24T06:29:29;23.52;47.89
77056;SHT30;67471;44.918;8.614;2023-04-24T06:32:33;23.92;47.18
77056;SHT30;67471;44.918;8.614;2023-04-24T06:35:37;24.53;46.13
77056;SHT30;67471;44.918;8.614;2023-04-24T06:38:41;24.55;45.84
77056;SHT30;67471;44.918;8.614;2023-04-24T06:41:45;24.78;45.83
77056;SHT30;67471;44.918;8.614;2023-04-24T06:44:56;25.11;45.11
77056;SHT30;67471;44.918;8.614;2023-04-24T06:47:59;25.04;45.39
77056;SHT30;67471;44.918;8.614;2023-04-24T06:51:03;24.82;45.71
77056;SHT30;67471;44.918;8.614;2023-04-24T06:54:07;24.55;46.62
77056;SHT30;67471;44.918;8.614;2023-04-24T06:57:11;25.22;45.33
77056;SHT30;67471;44.918;8.614;2023-04-24T07:00:15;25.39;44.83
77056;SHT30;67471;44.918;8.614;2023-04-24T07:03:19;25.63;44.46
77056;SHT30;67471;44.918;8.614;2023-04-24T07:06:23;25.42;45.17
77056;SHT30;67471;44.918;8.614;2023-04-24T07:09:27;26.04;43.91
77056;SHT30;67471;44.918;8.614;2023-04-24T07:12:31;25.64;44.08
77056;SHT30;67471;44.918;8.614;2023-04-24T07:15:35;25.75;44.35
77056;SHT30;67471;44.918;8.614;2023-04-24T07:18:39;26.32;42.75
77056;SHT30;67471;44.918;8.614;2023-04-24T07:21:43;26.59;42.08
77056;SHT30;67471;44.918;8.614;2023-04-24T07:24:47;26.13;43.18
77056;SHT30;67471;44.918;8.614;2023-04-24T07:27:51;26.13;42.75
77056;SHT30;67471;44.918;8.614;2023-04-24T07:30:56;25.93;42.21
77056;SHT30;67471;44.918;8.614;2023-04-24T07:34:00;25.51;43.10
77056;SHT30;67471;44.918;8.614;2023-04-24T07:37:04;24.75;45.01
77056;SHT30;67471;44.918;8.614;2023-04-24T07:40:08;24.88;44.55
77056;SHT30;67471;44.918;8.614;2023-04-24T07:43:13;25.36;44.23
77056;SHT30;67471;44.918;8.614;2023-04-24T07:46:17;24.88;44.91
77056;SHT30;67471;44.918;8.614;2023-04-24T07:49:20;26.08;42.68
77056;SHT30;67471;44.918;8.614;2023-04-24T07:52:24;24.26;46.18
77056;SHT30;67471;44.918;8.614;2023-04-24T07:55:28;24.75;44.79
77056;SHT30;67471;44.918;8.614;2023-04-24T07:58:31;25.47;43.08
77056;SHT30;67471;44.918;8.614;2023-04-24T08:01:36;25.30;43.39
77056;SHT30;67471;44.918;8.614;2023-04-24T08:04:39;25.43;43.01
77056;SHT30;67471;44.918;8.614;2023-04-24T08:07:44;25.30;42.54
77056;SHT30;67471;44.918;8.614;2023-04-24T08:10:49;25.26;42.79
77056;SHT30;67471;44.918;8.614;2023-04-24T08:13:53;24.68;43.75
77056;SHT30;67471;44.918;8.614;2023-04-24T08:16:58;24.30;44.71
77056;SHT30;67471;44.918;8.614;2023-04-24T08:20:04;23.54;46.65
77056;SHT30;67471;44.918;8.614;2023-04-24T08:23:08;23.11;47.72
77056;SHT30;67471;44.918;8.614;2023-04-24T08:26:13;22.68;49.24
77056;SHT30;67471;44.918;8.614;2023-04-24T08:29:17;23.01;48.27
77056;SHT30;67471;44.918;8.614;2023-04-24T08:32:21;23.55;46.94
77056;SHT30;67471;44.918;8.614;2023-04-24T08:35:24;23.85;46.05
77056;SHT30;67471;44.918;8.614;2023-04-24T08:38:28;23.69;45.95
77056;SHT30;67471;44.918;8.614;2023-04-24T08:41:34;23.28;46.75
77056;SHT30;67471;44.918;8.614;2023-04-24T08:44:38;23.14;47.74
77056;SHT30;67471;44.918;8.614;2023-04-24T08:47:42;23.56;46.33
77056;SHT30;67471;44.918;8.614;2023-04-24T08:50:50;23.44;47.20
77056;SHT30;67471;44.918;8.614;2023-04-24T08:53:54;23.73;46.13
77056;SHT30;67471;44.918;8.614;2023-04-24T08:57:00;24.30;45.21
77056;SHT30;67471;44.918;8.614;2023-04-24T09:00:07;24.63;44.58
77056;SHT30;67471;44.918;8.614;2023-04-24T09:03:13;24.79;44.21
77056;SHT30;67471;44.918;8.614;2023-04-24T09:06:17;24.91;43.70
77056;SHT30;67471;44.918;8.614;2023-04-24T09:09:24;24.88;43.93
77056;SHT30;67471;44.918;8.614;2023-04-24T09:12:28;25.06;43.68
77056;SHT30;67471;44.918;8.614;2023-04-24T09:15:31;25.40;43.38
77056;SHT30;67471;44.918;8.614;2023-04-24T09:18:35;25.22;42.53
77056;SHT30;67471;44.918;8.614;2023-04-24T09:21:39;24.99;42.77
77056;SHT30;67471;44.918;8.614;2023-04-24T09:24:45;24.63;43.97
77056;SHT30;67471;44.918;8.614;2023-04-24T09:27:49;24.30;44.70
77056;SHT30;67471;44.918;8.614;2023-04-24T09:34:10;25.01;42.33
77056;SHT30;67471;44.918;8.614;2023-04-24T09:37:30;25.01;43.22
77056;SHT30;67471;44.918;8.614;2023-04-24T09:40:34;25.40;42.75
77056;SHT30;67471;44.918;8.614;2023-04-24T09:43:38;25.62;42.16
77056;SHT30;67471;44.918;8.614;2023-04-24T09:46:45;25.36;42.42
77056;SHT30;67471;44.918;8.614;2023-04-24T09:49:49;25.51;41.78
77056;SHT30;67471;44.918;8.614;2023-04-24T09:53:01;25.71;42.14
77056;SHT30;67471;44.918;8.614;2023-04-24T09:56:09;25.81;42.05
77056;SHT30;67471;44.918;8.614;2023-04-24T09:59:14;25.78;41.95
77056;SHT30;67471;44.918;8.614;2023-04-24T10:02:20;25.59;42.68
77056;SHT30;67471;44.918;8.614;2023-04-24T10:05:28;25.26;43.12
77056;SHT30;67471;44.918;8.614;2023-04-24T10:08:36;25.23;42.93
77056;SHT30;67471;44.918;8.614;2023-04-24T10:11:45;24.98;43.50
77056;SHT30;67471;44.918;8.614;2023-04-24T10:14:49;25.36;42.14
77056;SHT30;67471;44.918;8.614;2023-04-24T10:17:54;25.29;42.51
77056;SHT30;67471;44.918;8.614;2023-04-24T10:20:59;25.47;41.92
77056;SHT30;67471;44.918;8.614;2023-04-24T10:24:05;25.64;42.07
77056;SHT30;67471;44.918;8.614;2023-04-24T10:27:11;25.83;41.95
77056;SHT30;67471;44.918;8.614;2023-04-24T10:30:17;26.11;41.27
77056;SHT30;67471;44.918;8.614;2023-04-24T10:33:22;26.21;39.91
77056;SHT30;67471;44.918;8.614;2023-04-24T10:36:27;26.17;40.75
77056;SHT30;67471;44.918;8.614;2023-04-24T10:39:31;25.90;40.97
77056;SHT30;67471;44.918;8.614;2023-04-24T10:42:40;25.97;40.66
77056;SHT30;67471;44.918;8.614;2023-04-24T10:46:04;26.11;38.53
77056;SHT30;67471;44.918;8.614;2023-04-24T10:49:08;26.20;38.80
77056;SHT30;67471;44.918;8.614;2023-04-24T10:52:13;26.09;38.27
77056;SHT30;67471;44.918;8.614;2023-04-24T10:58:52;25.95;39.00
77056;SHT30;67471;44.918;8.614;2023-04-24T11:01:56;26.05;37.46
77056;SHT30;67471;44.918;8.614;2023-04-24T11:05:03;25.57;36.06
77056;SHT30;67471;44.918;8.614;2023-04-24T11:08:12;25.74;36.09
77056;SHT30;67471;44.918;8.614;2023-04-24T11:11:17;25.62;36.65
77056;SHT30;67471;44.918;8.614;2023-04-24T11:14:21;25.29;37.50
77056;SHT30;67471;44.918;8.614;2023-04-24T11:20:54;26.32;36.53
77056;SHT30;67471;44.918;8.614;2023-04-24T11:23:58;26.75;35.64
77056;SHT30;67471;44.918;8.614;2023-04-24T11:27:14;26.96;34.69
77056;SHT30;67471;44.918;8.614;2023-04-24T11:30:19;27.03;34.45
77056;SHT30;67471;44.918;8.614;2023-04-24T11:33:24;26.90;34.14
77056;SHT30;67471;44.918;8.614;2023-04-24T11:36:28;27.04;34.40
77056;SHT30;67471;44.918;8.614;2023-04-24T11:39:37;27.03;34.65
77056;SHT30;67471;44.918;8.614;2023-04-24T11:42:48;26.90;32.21
77056;SHT30;67471;44.918;8.614;2023-04-24T11:45:52;26.73;30.86
77056;SHT30;67471;44.918;8.614;2023-04-24T11:48:56;26.76;28.03
77056;SHT30;67471;44.918;8.614;2023-04-24T11:52:00;26.60;27.49
77056;SHT30;67471;44.918;8.614;2023-04-24T11:55:26;26.69;28.10
77056;SHT30;67471;44.918;8.614;2023-04-24T11:58:39;26.93;28.03
77056;SHT30;67471;44.918;8.614;2023-04-24T12:01:47;26.89;26.87
77056;SHT30;67471;44.918;8.614;2023-04-24T12:04:52;26.78;27.04
77056;SHT30;67471;44.918;8.614;2023-04-24T12:07:56;26.59;28.21
77056;SHT30;67471;44.918;8.614;2023-04-24T12:11:01;26.46;29.69
77056;SHT30;67471;44.918;8.614;2023-04-24T12:14:11;26.21;30.36
77056;SHT30;67471;44.918;8.614;2023-04-24T12:17:16;26.17;30.04
77056;SHT30;67471;44.918;8.614;2023-04-24T12:20:26;26.46;29.99
77056;SHT30;67471;44.918;8.614;2023-04-24T12:23:34;26.44;30.94
77056;SHT30;67471;44.918;8.614;2023-04-24T12:26:42;26.68;31.05
77056;SHT30;67471;44.918;8.614;2023-04-24T12:29:56;26.80;30.80
77056;SHT30;67471;44.918;8.614;2023-04-24T12:33:02;26.78;29.17
77056;SHT30;67471;44.918;8.614;2023-04-24T12:36:06;26.84;28.45
77056;SHT30;67471;44.918;8.614;2023-04-24T12:39:19;27.04;28.83
77056;SHT30;67471;44.918;8.614;2023-04-24T12:42:27;27.18;28.77
77056;SHT30;67471;44.918;8.614;2023-04-24T12:45:31;27.14;29.32
77056;SHT30;67471;44.918;8.614;2023-04-24T12:48:34;27.26;28.44
77056;SHT30;67471;44.918;8.614;2023-04-24T12:51:38;27.30;27.81
77056;SHT30;67471;44.918;8.614;2023-04-24T12:54:42;27.35;27.41
77056;SHT30;67471;44.918;8.614;2023-04-24T12:57:46;27.24;27.88
77056;SHT30;67471;44.918;8.614;2023-04-24T13:00:50;27.37;27.79
77056;SHT30;67471;44.918;8.614;2023-04-24T13:03:54;27.18;27.38
77056;SHT30;67471;44.918;8.614;2023-04-24T13:06:58;27.04;27.43
77056;SHT30;67471;44.918;8.614;2023-04-24T13:10:01;27.08;28.10
77056;SHT30;67471;44.918;8.614;2023-04-24T13:13:05;27.11;28.65
77056;SHT30;67471;44.918;8.614;2023-04-24T13:16:09;27.18;27.93
77056;SHT30;67471;44.918;8.614;2023-04-24T13:19:13;26.94;28.41
77056;SHT30;67471;44.918;8.614;2023-04-24T13:22:18;26.90;28.57
77056;SHT30;67471;44.918;8.614;2023-04-24T13:25:24;26.79;28.57
77056;SHT30;67471;44.918;8.614;2023-04-24T13:28:28;26.56;28.61
77056;SHT30;67471;44.918;8.614;2023-04-24T13:31:33;26.86;27.01
77056;SHT30;67471;44.918;8.614;2023-04-24T13:34:37;27.06;26.30
77056;SHT30;67471;44.918;8.614;2023-04-24T13:37:41;27.26;25.94
77056;SHT30;67471;44.918;8.614;2023-04-24T13:40:45;27.26;26.10
77056;SHT30;67471;44.918;8.614;2023-04-24T13:43:49;27.41;26.10
77056;SHT30;67471;44.918;8.614;2023-04-24T13:46:54;27.58;24.72
77056;SHT30;67471;44.918;8.614;2023-04-24T13:50:00;27.59;25.21
77056;SHT30;67471;44.918;8.614;2023-04-24T13:53:03;27.68;25.04
77056;SHT30;67471;44.918;8.614;2023-04-24T13:56:07;27.43;25.27
77056;SHT30;67471;44.918;8.614;2023-04-24T13:59:12;27.35;25.32
77056;SHT30;67471;44.918;8.614;2023-04-24T14:02:17;27.38;25.81
77056;SHT30;67471;44.918;8.614;2023-04-24T14:05:21;27.50;25.51
77056;SHT30;67471;44.918;8.614;2023-04-24T14:08:25;27.59;25.68
77056;SHT30;67471;44.918;8.614;2023-04-24T14:11:29;27.71;25.62
77056;SHT30;67471;44.918;8.614;2023-04-24T14:14:33;27.68;24.20
77056;SHT30;67471;44.918;8.614;2023-04-24T14:17:37;27.72;24.23
77056;SHT30;67471;44.918;8.614;2023-04-24T14:20:40;27.72;23.68
77056;SHT30;67471;44.918;8.614;2023-04-24T14:23:44;27.66;23.96
77056;SHT30;67471;44.918;8.614;2023-04-24T14:26:52;27.68;23.59
77056;SHT30;67471;44.918;8.614;2023-04-24T14:29:56;27.71;22.89
77056;SHT30;67471;44.918;8.614;2023-04-24T14:33:00;27.80;23.53
77056;SHT30;67471;44.918;8.614;2023-04-24T14:36:04;27.88;23.13
77056;SHT30;67471;44.918;8.614;2023-04-24T14:39:09;27.72;22.92
77056;SHT30;67471;44.918;8.614;2023-04-24T14:42:13;27.72;23.44
77056;SHT30;67471;44.918;8.614;2023-04-24T14:45:18;27.78;23.71
77056;SHT30;67471;44.918;8.614;2023-04-24T14:48:21;27.91;23.97
77056;SHT30;67471;44.918;8.614;2023-04-24T14:51:25;27.85;24.04
77056;SHT30;67471;44.918;8.614;2023-04-24T14:54:30;27.82;24.04
77056;SHT30;67471;44.918;8.614;2023-04-24T14:57:34;27.66;22.07
77056;SHT30;67471;44.918;8.614;2023-04-24T15:00:39;27.58;23.16
77056;SHT30;67471;44.918;8.614;2023-04-24T15:03:43;27.66;23.26
77056;SHT30;67471;44.918;8.614;2023-04-24T15:06:47;27.50;23.95
77056;SHT30;67471;44.918;8.614;2023-04-24T15:09:50;27.61;23.54
77056;SHT30;67471;44.918;8.614;2023-04-24T15:12:55;27.71;23.42
77056;SHT30;67471;44.918;8.614;2023-04-24T15:15:59;27.72;22.80
77056;SHT30;67471;44.918;8.614;2023-04-24T15:19:02;27.71;22.92
77056;SHT30;67471;44.918;8.614;2023-04-24T15:22:06;27.62;22.73
77056;SHT30;67471;44.918;8.614;2023-04-24T15:25:10;27.44;23.59
77056;SHT30;67471;44.918;8.614;2023-04-24T15:28:14;27.54;23.96
77056;SHT30;67471;44.918;8.614;2023-04-24T15:31:19;27.41;22.62
77056;SHT30;67471;44.918;8.614;2023-04-24T15:34:24;27.44;23.10
77056;SHT30;67471;44.918;8.614;2023-04-24T15:37:28;27.35;23.46
77056;SHT30;67471;44.918;8.614;2023-04-24T15:40:32;27.37;23.37
77056;SHT30;67471;44.918;8.614;2023-04-24T15:43:36;27.48;23.59
77056;SHT30;67471;44.918;8.614;2023-04-24T15:46:42;27.31;23.38
77056;SHT30;67471;44.918;8.614;2023-04-24T15:49:46;27.38;23.36
77056;SHT30;67471;44.918;8.614;2023-04-24T15:52:50;27.37;24.02
77056;SHT30;67471;44.918;8.614;2023-04-24T15:55:54;27.10;26.49
77056;SHT30;67471;44.918;8.614;2023-04-24T15:59:00;26.94;26.98
77056;SHT30;67471;44.918;8.614;2023-04-24T16:02:03;26.87;27.25
77056;SHT30;67471;44.918;8.614;2023-04-24T16:05:07;26.76;27.13
77056;SHT30;67471;44.918;8.614;2023-04-24T16:08:11;26.71;26.70
77056;SHT30;67471;44.918;8.614;2023-04-24T16:11:16;26.63;26.80
77056;SHT30;67471;44.918;8.614;2023-04-24T16:14:20;26.42;26.79
77056;SHT30;67471;44.918;8.614;2023-04-24T16:17:24;26.14;28.35
77056;SHT30;67471;44.918;8.614;2023-04-24T16:20:28;25.98;28.73
77056;SHT30;67471;44.918;8.614;2023-04-24T16:23:32;25.91;28.85
77056;SHT30;67471;44.918;8.614;2023-04-24T16:26:36;25.50;29.53
77056;SHT30;67471;44.918;8.614;2023-04-24T16:29:40;25.20;30.21
77056;SHT30;67471;44.918;8.614;2023-04-24T16:32:44;25.37;29.96
77056;SHT30;67471;44.918;8.614;2023-04-24T16:35:48;25.36;30.00
77056;SHT30;67471;44.918;8.614;2023-04-24T16:38:52;25.43;30.02
77056;SHT30;67471;44.918;8.614;2023-04-24T16:41:56;25.54;29.86
77056;SHT30;67471;44.918;8.614;2023-04-24T16:45:00;25.59;29.10
77056;SHT30;67471;44.918;8.614;2023-04-24T16:48:03;25.30;29.61
77056;SHT30;67471;44.918;8.614;2023-04-24T16:51:07;25.26;30.28
77056;SHT30;67471;44.918;8.614;2023-04-24T16:54:11;25.08;31.95
77056;SHT30;67471;44.918;8.614;2023-04-24T16:57:15;24.85;32.26
77056;SHT30;67471;44.918;8.614;2023-04-24T17:00:19;24.58;32.56
77056;SHT30;67471;44.918;8.614;2023-04-24T17:03:23;24.47;33.07
77056;SHT30;67471;44.918;8.614;2023-04-24T17:06:27;24.38;33.66
77056;SHT30;67471;44.918;8.614;2023-04-24T17:09:31;24.24;33.23
77056;SHT30;67471;44.918;8.614;2023-04-24T17:12:35;24.18;33.59
77056;SHT30;67471;44.918;8.614;2023-04-24T17:15:40;24.16;33.69
77056;SHT30;67471;44.918;8.614;2023-04-24T17:18:44;24.00;33.84
77056;SHT30;67471;44.918;8.614;2023-04-24T17:21:48;23.82;34.10
77056;SHT30;67471;44.918;8.614;2023-04-24T17:24:52;23.73;34.31
77056;SHT30;67471;44.918;8.614;2023-04-24T17:27:55;23.63;34.64
77056;SHT30;67471;44.918;8.614;2023-04-24T17:30:59;23.37;35.08
77056;SHT30;67471;44.918;8.614;2023-04-24T17:34:03;23.51;35.06
77056;SHT30;67471;44.918;8.614;2023-04-24T17:37:07;23.21;35.23
77056;SHT30;67471;44.918;8.614;2023-04-24T17:40:11;23.22;35.18
77056;SHT30;67471;44.918;8.614;2023-04-24T17:43:15;23.24;34.98
77056;SHT30;67471;44.918;8.614;2023-04-24T17:46:20;23.10;34.87
77056;SHT30;67471;44.918;8.614;2023-04-24T17:49:24;22.94;35.27
77056;SHT30;67471;44.918;8.614;2023-04-24T17:52:28;22.73;35.69
77056;SHT30;67471;44.918;8.614;2023-04-24T17:55:32;22.56;35.92
77056;SHT30;67471;44.918;8.614;2023-04-24T17:58:36;22.39;36.06
77056;SHT30;67471;44.918;8.614;2023-04-24T18:01:41;22.29;35.91
77056;SHT30;67471;44.918;8.614;2023-04-24T18:04:44;22.18;35.76
77056;SHT30;67471;44.918;8.614;2023-04-24T18:07:48;22.01;35.98
77056;SHT30;67471;44.918;8.614;2023-04-24T18:10:52;22.05;35.49
77056;SHT30;67471;44.918;8.614;2023-04-24T18:13:56;21.87;35.91
77056;SHT30;67471;44.918;8.614;2023-04-24T18:16:59;21.85;35.78
77056;SHT30;67471;44.918;8.614;2023-04-24T18:20:04;21.78;36.35
77056;SHT30;67471;44.918;8.614;2023-04-24T18:23:08;21.64;37.07
77056;SHT30;67471;44.918;8.614;2023-04-24T18:26:12;21.53;37.72
77056;SHT30;67471;44.918;8.614;2023-04-24T18:29:19;21.38;38.07
77056;SHT30;67471;44.918;8.614;2023-04-24T18:32:24;21.43;38.08
77056;SHT30;67471;44.918;8.614;2023-04-24T18:35:28;21.40;38.24
77056;SHT30;67471;44.918;8.614;2023-04-24T18:38:32;21.26;38.53
77056;SHT30;67471;44.918;8.614;2023-04-24T18:41:36;21.22;38.65
77056;SHT30;67471;44.918;8.614;2023-04-24T18:44:40;20.97;39.08
77056;SHT30;67471;44.918;8.614;2023-04-24T18:47:45;21.04;38.73
77056;SHT30;67471;44.918;8.614;2023-04-24T18:50:48;20.69;39.54
77056;SHT30;67471;44.918;8.614;2023-04-24T18:53:52;20.56;40.21
77056;SHT30;67471;44.918;8.614;2023-04-24T18:56:56;20.45;40.46
77056;SHT30;67471;44.918;8.614;2023-04-24T18:59:59;20.16;41.23
77056;SHT30;67471;44.918;8.614;2023-04-24T19:03:07;20.06;41.86
77056;SHT30;67471;44.918;8.614;2023-04-24T19:06:12;19.84;42.35
77056;SHT30;67471;44.918;8.614;2023-04-24T19:09:16;19.98;42.12
77056;SHT30;67471;44.918;8.614;2023-04-24T19:12:20;19.84;42.26
77056;SHT30;67471;44.918;8.614;2023-04-24T19:15:24;19.80;42.34
77056;SHT30;67471;44.918;8.614;2023-04-24T19:18:28;19.71;42.61
77056;SHT30;67471;44.918;8.614;2023-04-24T19:21:33;19.74;42.65
77056;SHT30;67471;44.918;8.614;2023-04-24T19:24:36;19.55;42.92
77056;SHT30;67471;44.918;8.614;2023-04-24T19:27:40;19.50;43.07
77056;SHT30;67471;44.918;8.614;2023-04-24T19:30:44;19.43;42.95
77056;SHT30;67471;44.918;8.614;2023-04-24T19:33:48;19.35;43.12
77056;SHT30;67471;44.918;8.614;2023-04-24T19:36:52;19.32;43.09
77056;SHT30;67471;44.918;8.614;2023-04-24T19:39:56;19.40;42.87